Terminal Aerodrome Forecast
Issued by NWS

Home | Current Version | Previous Version | Text Only | Print | Product List | Glossary On
Versions: 1 2 3 4 5 6 7 8 9 10 11 12 13 14 15 16 17 18 19
961
FTAK31 PAJN 261127
TAFAKT
TAF
PAKT 261127Z 2612/2712 30004KT P6SM VCSH FEW008 SCT020 OVC030
      TEMPO 2612/2616 SCT007 BKN015 OVC020
     FM261600 34004KT P6SM VCSH BKN015 OVC050
     FM262000 34008KT P6SM VCSH SCT015 BKN040 OVC060
     FM270200 32008KT P6SM SCT015 OVC025
      AMD LTD TO CLD VIS AND WIND 2612/2615=

USA.gov is the U.S. government's official web portal to all federal, state and local government web resources and services.